sensor_id;sensor_type;location;lat;lon;timestamp;P1;durP1;ratioP1;P2;durP2;ratioP2
10110;SDS011;5095;49.796;9.934;2023-04-15T00:00:59;16.47;;;6.93;;
10110;SDS011;5095;49.796;9.934;2023-04-15T00:03:25;11.27;;;6.17;;
10110;SDS011;5095;49.796;9.934;2023-04-15T00:05:52;13.67;;;5.97;;
10110;SDS011;5095;49.796;9.934;2023-04-15T00:08:18;9.00;;;5.07;;
10110;SDS011;5095;49.796;9.934;2023-04-15T00:10:44;8.33;;;4.20;;
10110;SDS011;5095;49.796;9.934;2023-04-15T00:13:10;6.30;;;4.13;;
10110;SDS011;5095;49.796;9.934;2023-04-15T00:15:36;5.70;;;3.97;;
10110;SDS011;5095;49.796;9.934;2023-04-15T00:18:03;24.93;;;10.17;;
10110;SDS011;5095;49.796;9.934;2023-04-15T00:20:29;7.23;;;4.00;;
10110;SDS011;5095;49.796;9.934;2023-04-15T00:22:55;7.47;;;4.50;;
10110;SDS011;5095;49.796;9.934;2023-04-15T00:25:22;8.23;;;4.57;;
10110;SDS011;5095;49.796;9.934;2023-04-15T00:27:48;7.73;;;4.60;;
10110;SDS011;5095;49.796;9.934;2023-04-15T00:30:14;8.13;;;4.07;;
10110;SDS011;5095;49.796;9.934;2023-04-15T00:32:40;8.50;;;4.67;;
10110;SDS011;5095;49.796;9.934;2023-04-15T00:35:07;5.40;;;3.97;;
10110;SDS011;5095;49.796;9.934;2023-04-15T00:37:33;5.77;;;4.23;;
10110;SDS011;5095;49.796;9.934;2023-04-15T00:39:59;9.67;;;4.60;;
10110;SDS011;5095;49.796;9.934;2023-04-15T00:42:25;10.27;;;5.63;;
10110;SDS011;5095;49.796;9.934;2023-04-15T00:44:52;8.23;;;4.63;;
10110;SDS011;5095;49.796;9.934;2023-04-15T00:47:18;13.60;;;6.10;;
10110;SDS011;5095;49.796;9.934;2023-04-15T00:49:45;7.60;;;5.00;;
10110;SDS011;5095;49.796;9.934;2023-04-15T00:52:11;6.90;;;4.57;;
10110;SDS011;5095;49.796;9.934;2023-04-15T00:54:38;8.07;;;4.47;;
10110;SDS011;5095;49.796;9.934;2023-04-15T00:57:05;7.70;;;4.57;;
10110;SDS011;5095;49.796;9.934;2023-04-15T00:59:32;7.67;;;4.20;;
10110;SDS011;5095;49.796;9.934;2023-04-15T01:01:59;8.60;;;4.77;;
10110;SDS011;5095;49.796;9.934;2023-04-15T01:04:25;6.90;;;4.30;;
10110;SDS011;5095;49.796;9.934;2023-04-15T01:06:51;6.80;;;4.10;;
10110;SDS011;5095;49.796;9.934;2023-04-15T01:09:17;11.23;;;5.50;;
10110;SDS011;5095;49.796;9.934;2023-04-15T01:11:43;8.67;;;4.77;;
10110;SDS011;5095;49.796;9.934;2023-04-15T01:14:09;6.20;;;4.20;;
10110;SDS011;5095;49.796;9.934;2023-04-15T01:16:36;4.17;;;3.40;;
10110;SDS011;5095;49.796;9.934;2023-04-15T01:19:05;4.40;;;3.50;;
10110;SDS011;5095;49.796;9.934;2023-04-15T01:21:31;5.87;;;3.70;;
10110;SDS011;5095;49.796;9.934;2023-04-15T01:23:57;5.27;;;3.87;;
10110;SDS011;5095;49.796;9.934;2023-04-15T01:26:23;7.63;;;3.73;;
10110;SDS011;5095;49.796;9.934;2023-04-15T01:28:50;7.73;;;4.00;;
10110;SDS011;5095;49.796;9.934;2023-04-15T01:31:16;6.73;;;3.90;;
10110;SDS011;5095;49.796;9.934;2023-04-15T01:33:42;6.73;;;4.30;;
10110;SDS011;5095;49.796;9.934;2023-04-15T01:36:08;12.33;;;5.63;;
10110;SDS011;5095;49.796;9.934;2023-04-15T01:38:35;11.30;;;4.97;;
10110;SDS011;5095;49.796;9.934;2023-04-15T01:41:02;8.30;;;4.53;;
10110;SDS011;5095;49.796;9.934;2023-04-15T01:43:34;9.70;;;4.60;;
10110;SDS011;5095;49.796;9.934;2023-04-15T01:46:04;5.43;;;3.97;;
10110;SDS011;5095;49.796;9.934;2023-04-15T01:48:30;8.10;;;4.53;;
10110;SDS011;5095;49.796;9.934;2023-04-15T01:50:56;6.73;;;4.23;;
10110;SDS011;5095;49.796;9.934;2023-04-15T01:53:23;5.20;;;3.83;;
10110;SDS011;5095;49.796;9.934;2023-04-15T01:55:50;5.83;;;3.87;;
10110;SDS011;5095;49.796;9.934;2023-04-15T01:58:17;7.07;;;4.10;;
10110;SDS011;5095;49.796;9.934;2023-04-15T02:00:43;6.23;;;4.00;;
10110;SDS011;5095;49.796;9.934;2023-04-15T02:03:09;7.57;;;4.10;;
10110;SDS011;5095;49.796;9.934;2023-04-15T02:05:35;5.00;;;3.73;;
10110;SDS011;5095;49.796;9.934;2023-04-15T02:08:01;6.57;;;4.00;;
10110;SDS011;5095;49.796;9.934;2023-04-15T02:10:27;4.83;;;3.97;;
10110;SDS011;5095;49.796;9.934;2023-04-15T02:12:54;7.73;;;4.27;;
10110;SDS011;5095;49.796;9.934;2023-04-15T02:15:20;6.47;;;4.00;;
10110;SDS011;5095;49.796;9.934;2023-04-15T02:17:46;8.67;;;4.83;;
10110;SDS011;5095;49.796;9.934;2023-04-15T02:20:15;7.27;;;4.77;;
10110;SDS011;5095;49.796;9.934;2023-04-15T02:22:42;6.30;;;4.13;;
10110;SDS011;5095;49.796;9.934;2023-04-15T02:25:08;6.57;;;4.10;;
10110;SDS011;5095;49.796;9.934;2023-04-15T02:27:35;5.57;;;3.67;;
10110;SDS011;5095;49.796;9.934;2023-04-15T02:30:01;7.67;;;4.10;;
10110;SDS011;5095;49.796;9.934;2023-04-15T02:32:27;5.50;;;3.60;;
10110;SDS011;5095;49.796;9.934;2023-04-15T02:34:53;4.93;;;3.70;;
10110;SDS011;5095;49.796;9.934;2023-04-15T02:37:20;7.10;;;4.50;;
10110;SDS011;5095;49.796;9.934;2023-04-15T02:39:46;7.80;;;3.53;;
10110;SDS011;5095;49.796;9.934;2023-04-15T02:42:12;6.57;;;4.37;;
10110;SDS011;5095;49.796;9.934;2023-04-15T02:44:38;8.70;;;4.03;;
10110;SDS011;5095;49.796;9.934;2023-04-15T02:47:04;7.67;;;4.20;;
10110;SDS011;5095;49.796;9.934;2023-04-15T02:49:31;10.53;;;4.00;;
10110;SDS011;5095;49.796;9.934;2023-04-15T02:51:57;4.97;;;3.73;;
10110;SDS011;5095;49.796;9.934;2023-04-15T02:54:24;5.90;;;3.63;;
10110;SDS011;5095;49.796;9.934;2023-04-15T02:56:52;5.70;;;4.03;;
10110;SDS011;5095;49.796;9.934;2023-04-15T02:59:22;6.20;;;3.83;;
10110;SDS011;5095;49.796;9.934;2023-04-15T03:01:48;5.27;;;4.07;;
10110;SDS011;5095;49.796;9.934;2023-04-15T03:04:14;5.53;;;3.30;;
10110;SDS011;5095;49.796;9.934;2023-04-15T03:06:40;5.10;;;3.73;;
10110;SDS011;5095;49.796;9.934;2023-04-15T03:09:06;7.00;;;3.90;;
10110;SDS011;5095;49.796;9.934;2023-04-15T03:11:34;6.60;;;3.47;;
10110;SDS011;5095;49.796;9.934;2023-04-15T03:14:04;4.97;;;3.33;;
10110;SDS011;5095;49.796;9.934;2023-04-15T03:16:30;6.03;;;3.30;;
10110;SDS011;5095;49.796;9.934;2023-04-15T03:18:56;8.10;;;3.80;;
10110;SDS011;5095;49.796;9.934;2023-04-15T03:21:22;4.90;;;3.57;;
10110;SDS011;5095;49.796;9.934;2023-04-15T03:23:48;5.17;;;4.00;;
10110;SDS011;5095;49.796;9.934;2023-04-15T03:26:30;6.97;;;3.93;;
10110;SDS011;5095;49.796;9.934;2023-04-15T03:28:57;7.63;;;3.97;;
10110;SDS011;5095;49.796;9.934;2023-04-15T03:31:23;5.80;;;3.23;;
10110;SDS011;5095;49.796;9.934;2023-04-15T03:33:49;6.00;;;3.70;;
10110;SDS011;5095;49.796;9.934;2023-04-15T03:36:15;4.40;;;3.37;;
10110;SDS011;5095;49.796;9.934;2023-04-15T03:38:41;4.83;;;3.30;;
10110;SDS011;5095;49.796;9.934;2023-04-15T03:41:07;4.90;;;3.33;;
10110;SDS011;5095;49.796;9.934;2023-04-15T03:43:34;10.40;;;3.27;;
10110;SDS011;5095;49.796;9.934;2023-04-15T03:46:00;4.37;;;3.33;;
10110;SDS011;5095;49.796;9.934;2023-04-15T03:48:26;7.00;;;3.47;;
10110;SDS011;5095;49.796;9.934;2023-04-15T03:50:52;5.30;;;3.23;;
10110;SDS011;5095;49.796;9.934;2023-04-15T03:53:19;4.83;;;3.67;;
10110;SDS011;5095;49.796;9.934;2023-04-15T03:55:46;5.10;;;3.27;;
10110;SDS011;5095;49.796;9.934;2023-04-15T03:58:12;5.47;;;3.30;;
10110;SDS011;5095;49.796;9.934;2023-04-15T04:00:38;4.50;;;3.00;;
10110;SDS011;5095;49.796;9.934;2023-04-15T04:03:05;5.00;;;3.67;;
10110;SDS011;5095;49.796;9.934;2023-04-15T04:05:32;5.40;;;3.33;;
10110;SDS011;5095;49.796;9.934;2023-04-15T04:08:01;7.10;;;3.47;;
10110;SDS011;5095;49.796;9.934;2023-04-15T04:10:27;6.60;;;3.50;;
10110;SDS011;5095;49.796;9.934;2023-04-15T04:12:53;5.00;;;3.40;;
10110;SDS011;5095;49.796;9.934;2023-04-15T04:15:19;5.60;;;3.67;;
10110;SDS011;5095;49.796;9.934;2023-04-15T04:17:45;5.67;;;3.50;;
10110;SDS011;5095;49.796;9.934;2023-04-15T04:20:11;6.53;;;3.37;;
10110;SDS011;5095;49.796;9.934;2023-04-15T04:22:37;3.93;;;3.50;;
10110;SDS011;5095;49.796;9.934;2023-04-15T04:25:04;4.03;;;3.33;;
10110;SDS011;5095;49.796;9.934;2023-04-15T04:27:32;7.43;;;3.70;;
10110;SDS011;5095;49.796;9.934;2023-04-15T04:29:58;6.17;;;3.67;;
10110;SDS011;5095;49.796;9.934;2023-04-15T04:32:24;7.77;;;3.43;;
10110;SDS011;5095;49.796;9.934;2023-04-15T04:34:50;6.27;;;3.73;;
10110;SDS011;5095;49.796;9.934;2023-04-15T04:37:16;8.37;;;3.27;;
10110;SDS011;5095;49.796;9.934;2023-04-15T04:39:42;7.73;;;3.60;;
10110;SDS011;5095;49.796;9.934;2023-04-15T04:42:08;4.70;;;3.80;;
10110;SDS011;5095;49.796;9.934;2023-04-15T04:44:35;6.03;;;3.33;;
10110;SDS011;5095;49.796;9.934;2023-04-15T04:47:01;6.23;;;4.03;;
10110;SDS011;5095;49.796;9.934;2023-04-15T04:49:27;7.47;;;3.67;;
10110;SDS011;5095;49.796;9.934;2023-04-15T04:51:53;4.03;;;3.20;;
10110;SDS011;5095;49.796;9.934;2023-04-15T04:54:19;5.23;;;3.67;;
10110;SDS011;5095;49.796;9.934;2023-04-15T04:56:45;5.60;;;3.70;;
10110;SDS011;5095;49.796;9.934;2023-04-15T04:59:11;5.30;;;3.40;;
10110;SDS011;5095;49.796;9.934;2023-04-15T05:01:38;4.83;;;3.57;;
10110;SDS011;5095;49.796;9.934;2023-04-15T05:04:04;4.70;;;3.37;;
10110;SDS011;5095;49.796;9.934;2023-04-15T05:06:31;5.87;;;3.97;;
10110;SDS011;5095;49.796;9.934;2023-04-15T05:08:57;5.20;;;3.27;;
10110;SDS011;5095;49.796;9.934;2023-04-15T05:11:23;6.00;;;3.47;;
10110;SDS011;5095;49.796;9.934;2023-04-15T05:13:50;6.37;;;3.70;;
10110;SDS011;5095;49.796;9.934;2023-04-15T05:16:16;5.57;;;3.60;;
10110;SDS011;5095;49.796;9.934;2023-04-15T05:18:43;4.90;;;3.10;;
10110;SDS011;5095;49.796;9.934;2023-04-15T05:21:09;4.37;;;3.17;;
10110;SDS011;5095;49.796;9.934;2023-04-15T05:23:36;6.00;;;3.60;;
10110;SDS011;5095;49.796;9.934;2023-04-15T05:26:02;5.73;;;3.40;;
10110;SDS011;5095;49.796;9.934;2023-04-15T05:28:28;4.13;;;3.00;;
10110;SDS011;5095;49.796;9.934;2023-04-15T05:30:54;7.67;;;3.13;;
10110;SDS011;5095;49.796;9.934;2023-04-15T05:33:20;5.37;;;3.27;;
10110;SDS011;5095;49.796;9.934;2023-04-15T05:35:47;6.43;;;3.23;;
10110;SDS011;5095;49.796;9.934;2023-04-15T05:38:13;5.43;;;3.60;;
10110;SDS011;5095;49.796;9.934;2023-04-15T05:40:39;5.20;;;3.07;;
10110;SDS011;5095;49.796;9.934;2023-04-15T05:43:05;5.13;;;3.30;;
10110;SDS011;5095;49.796;9.934;2023-04-15T05:45:32;8.93;;;3.50;;
10110;SDS011;5095;49.796;9.934;2023-04-15T05:47:58;4.87;;;3.33;;
10110;SDS011;5095;49.796;9.934;2023-04-15T05:50:25;3.80;;;3.00;;
10110;SDS011;5095;49.796;9.934;2023-04-15T05:52:51;4.77;;;3.60;;
10110;SDS011;5095;49.796;9.934;2023-04-15T05:55:17;5.43;;;3.10;;
10110;SDS011;5095;49.796;9.934;2023-04-15T05:57:43;5.77;;;3.07;;
10110;SDS011;5095;49.796;9.934;2023-04-15T06:00:09;5.90;;;3.40;;
10110;SDS011;5095;49.796;9.934;2023-04-15T06:02:35;4.10;;;3.57;;
10110;SDS011;5095;49.796;9.934;2023-04-15T06:05:01;5.30;;;3.20;;
10110;SDS011;5095;49.796;9.934;2023-04-15T06:07:27;5.73;;;3.37;;
10110;SDS011;5095;49.796;9.934;2023-04-15T06:09:54;6.87;;;3.27;;
10110;SDS011;5095;49.796;9.934;2023-04-15T06:12:20;5.87;;;3.40;;
10110;SDS011;5095;49.796;9.934;2023-04-15T06:14:46;6.00;;;3.10;;
10110;SDS011;5095;49.796;9.934;2023-04-15T06:17:12;5.20;;;3.30;;
10110;SDS011;5095;49.796;9.934;2023-04-15T06:19:39;6.70;;;3.50;;
10110;SDS011;5095;49.796;9.934;2023-04-15T06:22:05;4.83;;;3.00;;
10110;SDS011;5095;49.796;9.934;2023-04-15T06:24:31;4.90;;;3.20;;
10110;SDS011;5095;49.796;9.934;2023-04-15T06:26:57;5.03;;;3.27;;
10110;SDS011;5095;49.796;9.934;2023-04-15T06:29:23;6.00;;;3.17;;
10110;SDS011;5095;49.796;9.934;2023-04-15T06:31:49;5.30;;;3.30;;
10110;SDS011;5095;49.796;9.934;2023-04-15T06:34:16;5.07;;;3.60;;
10110;SDS011;5095;49.796;9.934;2023-04-15T06:36:42;8.03;;;3.80;;
10110;SDS011;5095;49.796;9.934;2023-04-15T06:39:08;4.50;;;3.00;;
10110;SDS011;5095;49.796;9.934;2023-04-15T06:41:34;4.97;;;3.10;;
10110;SDS011;5095;49.796;9.934;2023-04-15T06:44:00;3.47;;;2.80;;
10110;SDS011;5095;49.796;9.934;2023-04-15T06:46:26;7.07;;;3.37;;
10110;SDS011;5095;49.796;9.934;2023-04-15T06:48:52;4.77;;;3.33;;
10110;SDS011;5095;49.796;9.934;2023-04-15T06:51:19;4.53;;;3.07;;
10110;SDS011;5095;49.796;9.934;2023-04-15T06:53:45;6.77;;;3.13;;
10110;SDS011;5095;49.796;9.934;2023-04-15T06:56:11;4.57;;;3.10;;
10110;SDS011;5095;49.796;9.934;2023-04-15T06:58:37;5.13;;;3.33;;
10110;SDS011;5095;49.796;9.934;2023-04-15T07:01:03;6.17;;;2.90;;
10110;SDS011;5095;49.796;9.934;2023-04-15T07:03:30;7.57;;;3.27;;
10110;SDS011;5095;49.796;9.934;2023-04-15T07:05:56;5.33;;;3.10;;
10110;SDS011;5095;49.796;9.934;2023-04-15T07:08:22;4.27;;;3.03;;
10110;SDS011;5095;49.796;9.934;2023-04-15T07:10:49;3.57;;;3.00;;
10110;SDS011;5095;49.796;9.934;2023-04-15T07:13:15;8.87;;;3.03;;
10110;SDS011;5095;49.796;9.934;2023-04-15T07:15:41;5.50;;;3.03;;
10110;SDS011;5095;49.796;9.934;2023-04-15T07:18:07;4.13;;;3.27;;
10110;SDS011;5095;49.796;9.934;2023-04-15T07:20:34;5.73;;;2.90;;
10110;SDS011;5095;49.796;9.934;2023-04-15T07:23:00;4.87;;;3.20;;
10110;SDS011;5095;49.796;9.934;2023-04-15T07:25:26;4.40;;;3.00;;
10110;SDS011;5095;49.796;9.934;2023-04-15T07:27:52;4.70;;;3.10;;
10110;SDS011;5095;49.796;9.934;2023-04-15T07:30:19;5.57;;;3.37;;
10110;SDS011;5095;49.796;9.934;2023-04-15T07:32:45;5.87;;;3.70;;
10110;SDS011;5095;49.796;9.934;2023-04-15T07:35:11;5.27;;;3.20;;
10110;SDS011;5095;49.796;9.934;2023-04-15T07:37:37;5.83;;;3.43;;
10110;SDS011;5095;49.796;9.934;2023-04-15T07:40:03;5.33;;;3.07;;
10110;SDS011;5095;49.796;9.934;2023-04-15T07:42:31;4.70;;;3.40;;
10110;SDS011;5095;49.796;9.934;2023-04-15T07:44:58;5.83;;;3.80;;
10110;SDS011;5095;49.796;9.934;2023-04-15T07:47:24;5.43;;;3.23;;
10110;SDS011;5095;49.796;9.934;2023-04-15T07:49:51;6.60;;;4.30;;
10110;SDS011;5095;49.796;9.934;2023-04-15T07:52:17;4.00;;;3.43;;
10110;SDS011;5095;49.796;9.934;2023-04-15T07:54:43;4.43;;;3.40;;
10110;SDS011;5095;49.796;9.934;2023-04-15T07:57:10;5.87;;;3.93;;
10110;SDS011;5095;49.796;9.934;2023-04-15T07:59:36;6.23;;;4.20;;
10110;SDS011;5095;49.796;9.934;2023-04-15T08:02:02;6.00;;;3.97;;
10110;SDS011;5095;49.796;9.934;2023-04-15T08:04:28;10.97;;;4.30;;
10110;SDS011;5095;49.796;9.934;2023-04-15T08:06:55;5.80;;;3.90;;
10110;SDS011;5095;49.796;9.934;2023-04-15T08:09:22;6.60;;;4.30;;
10110;SDS011;5095;49.796;9.934;2023-04-15T08:11:48;6.10;;;4.20;;
10110;SDS011;5095;49.796;9.934;2023-04-15T08:14:17;6.10;;;4.23;;
10110;SDS011;5095;49.796;9.934;2023-04-15T08:16:43;4.30;;;3.43;;
10110;SDS011;5095;49.796;9.934;2023-04-15T08:19:09;5.07;;;3.40;;
10110;SDS011;5095;49.796;9.934;2023-04-15T08:21:35;5.37;;;3.80;;
10110;SDS011;5095;49.796;9.934;2023-04-15T08:24:01;4.07;;;2.87;;
10110;SDS011;5095;49.796;9.934;2023-04-15T08:26:27;4.97;;;3.40;;
10110;SDS011;5095;49.796;9.934;2023-04-15T08:28:53;5.30;;;3.47;;
10110;SDS011;5095;49.796;9.934;2023-04-15T08:31:20;5.00;;;3.90;;
10110;SDS011;5095;49.796;9.934;2023-04-15T08:33:46;5.10;;;3.20;;
10110;SDS011;5095;49.796;9.934;2023-04-15T08:36:12;4.47;;;3.20;;
10110;SDS011;5095;49.796;9.934;2023-04-15T08:38:38;4.53;;;3.17;;
10110;SDS011;5095;49.796;9.934;2023-04-15T08:41:16;3.80;;;3.13;;
10110;SDS011;5095;49.796;9.934;2023-04-15T08:43:50;3.40;;;2.80;;
10110;SDS011;5095;49.796;9.934;2023-04-15T08:46:17;4.80;;;3.07;;
10110;SDS011;5095;49.796;9.934;2023-04-15T08:48:44;5.03;;;3.00;;
10110;SDS011;5095;49.796;9.934;2023-04-15T08:51:11;4.60;;;3.07;;
10110;SDS011;5095;49.796;9.934;2023-04-15T08:53:40;5.00;;;2.90;;
10110;SDS011;5095;49.796;9.934;2023-04-15T08:56:06;4.63;;;3.07;;
10110;SDS011;5095;49.796;9.934;2023-04-15T08:58:34;5.63;;;2.87;;
10110;SDS011;5095;49.796;9.934;2023-04-15T09:01:01;5.77;;;3.50;;
10110;SDS011;5095;49.796;9.934;2023-04-15T09:03:27;7.30;;;3.30;;
10110;SDS011;5095;49.796;9.934;2023-04-15T09:05:53;4.43;;;2.90;;
10110;SDS011;5095;49.796;9.934;2023-04-15T09:08:19;5.80;;;3.43;;
10110;SDS011;5095;49.796;9.934;2023-04-15T09:10:46;4.73;;;3.13;;
10110;SDS011;5095;49.796;9.934;2023-04-15T09:13:12;6.37;;;2.80;;
10110;SDS011;5095;49.796;9.934;2023-04-15T09:15:38;3.70;;;2.67;;
10110;SDS011;5095;49.796;9.934;2023-04-15T09:18:05;4.73;;;3.07;;
10110;SDS011;5095;49.796;9.934;2023-04-15T09:20:37;2.83;;;2.53;;
10110;SDS011;5095;49.796;9.934;2023-04-15T09:23:10;4.00;;;2.40;;
10110;SDS011;5095;49.796;9.934;2023-04-15T09:25:37;8.60;;;2.50;;
10110;SDS011;5095;49.796;9.934;2023-04-15T09:28:09;2.63;;;2.20;;
10110;SDS011;5095;49.796;9.934;2023-04-15T09:30:35;3.70;;;2.37;;
10110;SDS011;5095;49.796;9.934;2023-04-15T09:33:02;6.27;;;2.70;;
10110;SDS011;5095;49.796;9.934;2023-04-15T09:35:35;5.17;;;2.50;;
10110;SDS011;5095;49.796;9.934;2023-04-15T09:38:05;3.90;;;2.40;;
10110;SDS011;5095;49.796;9.934;2023-04-15T09:40:32;3.97;;;2.80;;
10110;SDS011;5095;49.796;9.934;2023-04-15T09:42:59;3.97;;;2.50;;
10110;SDS011;5095;49.796;9.934;2023-04-15T09:45:26;3.13;;;2.40;;
10110;SDS011;5095;49.796;9.934;2023-04-15T09:47:52;4.43;;;2.37;;
10110;SDS011;5095;49.796;9.934;2023-04-15T09:50:18;3.67;;;2.33;;
10110;SDS011;5095;49.796;9.934;2023-04-15T09:52:45;4.10;;;2.00;;
10110;SDS011;5095;49.796;9.934;2023-04-15T09:55:12;2.87;;;1.97;;
10110;SDS011;5095;49.796;9.934;2023-04-15T09:57:39;3.43;;;2.30;;
10110;SDS011;5095;49.796;9.934;2023-04-15T10:00:06;2.97;;;2.23;;
10110;SDS011;5095;49.796;9.934;2023-04-15T10:02:35;2.80;;;2.00;;
10110;SDS011;5095;49.796;9.934;2023-04-15T10:05:01;2.83;;;2.10;;
10110;SDS011;5095;49.796;9.934;2023-04-15T10:07:28;2.93;;;2.10;;
10110;SDS011;5095;49.796;9.934;2023-04-15T10:09:55;3.10;;;2.30;;
10110;SDS011;5095;49.796;9.934;2023-04-15T10:12:21;2.87;;;2.20;;
10110;SDS011;5095;49.796;9.934;2023-04-15T10:14:51;3.70;;;2.30;;
10110;SDS011;5095;49.796;9.934;2023-04-15T10:17:17;2.47;;;1.77;;
10110;SDS011;5095;49.796;9.934;2023-04-15T10:19:46;6.87;;;1.87;;
10110;SDS011;5095;49.796;9.934;2023-04-15T10:22:13;4.23;;;2.40;;
10110;SDS011;5095;49.796;9.934;2023-04-15T10:24:39;3.40;;;1.80;;
10110;SDS011;5095;49.796;9.934;2023-04-15T10:27:07;2.43;;;1.67;;
10110;SDS011;5095;49.796;9.934;2023-04-15T10:29:33;1.70;;;1.60;;
10110;SDS011;5095;49.796;9.934;2023-04-15T10:31:59;2.57;;;1.87;;
10110;SDS011;5095;49.796;9.934;2023-04-15T10:34:26;3.00;;;1.80;;
10110;SDS011;5095;49.796;9.934;2023-04-15T10:36:55;3.03;;;1.93;;
10110;SDS011;5095;49.796;9.934;2023-04-15T10:42:06;2.67;;;1.70;;
10110;SDS011;5095;49.796;9.934;2023-04-15T10:44:32;2.07;;;1.50;;
10110;SDS011;5095;49.796;9.934;2023-04-15T10:46:58;2.03;;;1.83;;
10110;SDS011;5095;49.796;9.934;2023-04-15T10:49:25;1.87;;;1.70;;
10110;SDS011;5095;49.796;9.934;2023-04-15T10:51:51;1.43;;;1.33;;
10110;SDS011;5095;49.796;9.934;2023-04-15T10:56:50;1.57;;;1.47;;
10110;SDS011;5095;49.796;9.934;2023-04-15T10:59:17;2.67;;;1.57;;
10110;SDS011;5095;49.796;9.934;2023-04-15T11:01:49;2.73;;;1.83;;
10110;SDS011;5095;49.796;9.934;2023-04-15T11:07:04;1.40;;;0.87;;
10110;SDS011;5095;49.796;9.934;2023-04-15T11:09:31;2.53;;;1.00;;
10110;SDS011;5095;49.796;9.934;2023-04-15T11:12:07;1.43;;;1.33;;
10110;SDS011;5095;49.796;9.934;2023-04-15T11:14:35;1.97;;;1.10;;
10110;SDS011;5095;49.796;9.934;2023-04-15T11:17:04;1.70;;;1.00;;
10110;SDS011;5095;49.796;9.934;2023-04-15T11:19:39;1.20;;;1.00;;
10110;SDS011;5095;49.796;9.934;2023-04-15T11:22:08;1.80;;;1.00;;
10110;SDS011;5095;49.796;9.934;2023-04-15T11:24:35;1.63;;;1.13;;
10110;SDS011;5095;49.796;9.934;2023-04-15T11:27:01;1.50;;;1.40;;
10110;SDS011;5095;49.796;9.934;2023-04-15T11:29:28;1.87;;;1.13;;
10110;SDS011;5095;49.796;9.934;2023-04-15T11:32:04;1.73;;;1.30;;
10110;SDS011;5095;49.796;9.934;2023-04-15T11:34:31;2.00;;;1.20;;
10110;SDS011;5095;49.796;9.934;2023-04-15T11:36:57;1.50;;;1.20;;
10110;SDS011;5095;49.796;9.934;2023-04-15T11:39:23;1.30;;;1.20;;
10110;SDS011;5095;49.796;9.934;2023-04-15T11:41:49;1.67;;;1.43;;
10110;SDS011;5095;49.796;9.934;2023-04-15T11:44:16;7.00;;;5.60;;
10110;SDS011;5095;49.796;9.934;2023-04-15T11:46:42;1.83;;;1.63;;
10110;SDS011;5095;49.796;9.934;2023-04-15T11:49:08;1.20;;;1.10;;
10110;SDS011;5095;49.796;9.934;2023-04-15T11:51:34;1.57;;;1.20;;
10110;SDS011;5095;49.796;9.934;2023-04-15T11:54:00;5.57;;;2.87;;
10110;SDS011;5095;49.796;9.934;2023-04-15T11:56:27;1.40;;;1.30;;
10110;SDS011;5095;49.796;9.934;2023-04-15T11:58:54;1.73;;;1.47;;
10110;SDS011;5095;49.796;9.934;2023-04-15T12:01:33;3.30;;;1.60;;
10110;SDS011;5095;49.796;9.934;2023-04-15T12:04:00;1.50;;;1.40;;
10110;SDS011;5095;49.796;9.934;2023-04-15T12:06:34;1.30;;;1.20;;
10110;SDS011;5095;49.796;9.934;2023-04-15T12:11:37;1.60;;;1.50;;
10110;SDS011;5095;49.796;9.934;2023-04-15T12:14:05;2.93;;;1.80;;
10110;SDS011;5095;49.796;9.934;2023-04-15T12:16:32;2.53;;;1.53;;
10110;SDS011;5095;49.796;9.934;2023-04-15T12:18:59;1.83;;;1.70;;
10110;SDS011;5095;49.796;9.934;2023-04-15T12:21:26;2.30;;;1.30;;
10110;SDS011;5095;49.796;9.934;2023-04-15T12:23:56;2.00;;;1.50;;
10110;SDS011;5095;49.796;9.934;2023-04-15T12:26:26;1.67;;;1.43;;
10110;SDS011;5095;49.796;9.934;2023-04-15T12:28:53;4.57;;;2.90;;
10110;SDS011;5095;49.796;9.934;2023-04-15T12:31:20;1.70;;;1.40;;
10110;SDS011;5095;49.796;9.934;2023-04-15T12:33:47;3.07;;;2.50;;
10110;SDS011;5095;49.796;9.934;2023-04-15T12:36:13;2.13;;;1.90;;
10110;SDS011;5095;49.796;9.934;2023-04-15T12:38:40;2.67;;;1.80;;
10110;SDS011;5095;49.796;9.934;2023-04-15T12:41:06;2.37;;;1.93;;
10110;SDS011;5095;49.796;9.934;2023-04-15T12:43:32;2.77;;;1.87;;
10110;SDS011;5095;49.796;9.934;2023-04-15T12:45:59;2.13;;;1.87;;
10110;SDS011;5095;49.796;9.934;2023-04-15T12:48:25;2.37;;;1.80;;
10110;SDS011;5095;49.796;9.934;2023-04-15T12:50:51;2.57;;;1.67;;
10110;SDS011;5095;49.796;9.934;2023-04-15T12:53:17;3.20;;;2.00;;
10110;SDS011;5095;49.796;9.934;2023-04-15T12:55:43;2.40;;;1.90;;
10110;SDS011;5095;49.796;9.934;2023-04-15T12:58:09;2.63;;;2.07;;
10110;SDS011;5095;49.796;9.934;2023-04-15T13:00:36;4.10;;;2.00;;
10110;SDS011;5095;49.796;9.934;2023-04-15T13:03:02;2.23;;;1.80;;
10110;SDS011;5095;49.796;9.934;2023-04-15T13:05:28;1.73;;;1.60;;
10110;SDS011;5095;49.796;9.934;2023-04-15T13:07:55;1.63;;;1.53;;
10110;SDS011;5095;49.796;9.934;2023-04-15T13:10:21;3.30;;;1.77;;
10110;SDS011;5095;49.796;9.934;2023-04-15T13:12:48;2.87;;;1.70;;
10110;SDS011;5095;49.796;9.934;2023-04-15T13:15:17;1.77;;;1.50;;
10110;SDS011;5095;49.796;9.934;2023-04-15T13:17:44;2.27;;;1.70;;
10110;SDS011;5095;49.796;9.934;2023-04-15T13:20:11;1.73;;;1.63;;
10110;SDS011;5095;49.796;9.934;2023-04-15T13:22:37;3.37;;;1.80;;
10110;SDS011;5095;49.796;9.934;2023-04-15T13:25:03;7.50;;;4.70;;
10110;SDS011;5095;49.796;9.934;2023-04-15T13:27:30;1.70;;;1.60;;
10110;SDS011;5095;49.796;9.934;2023-04-15T13:29:56;2.47;;;1.87;;
10110;SDS011;5095;49.796;9.934;2023-04-15T13:32:22;1.90;;;1.70;;
10110;SDS011;5095;49.796;9.934;2023-04-15T13:34:49;2.17;;;1.70;;
10110;SDS011;5095;49.796;9.934;2023-04-15T13:37:15;1.90;;;1.70;;
10110;SDS011;5095;49.796;9.934;2023-04-15T13:39:41;1.57;;;1.40;;
10110;SDS011;5095;49.796;9.934;2023-04-15T13:42:07;1.70;;;1.30;;
10110;SDS011;5095;49.796;9.934;2023-04-15T13:44:33;2.03;;;1.60;;
10110;SDS011;5095;49.796;9.934;2023-04-15T13:46:59;1.43;;;1.33;;
10110;SDS011;5095;49.796;9.934;2023-04-15T13:49:26;4.10;;;1.93;;
10110;SDS011;5095;49.796;9.934;2023-04-15T13:51:52;2.00;;;1.53;;
10110;SDS011;5095;49.796;9.934;2023-04-15T13:54:19;2.17;;;1.57;;
10110;SDS011;5095;49.796;9.934;2023-04-15T13:56:45;2.53;;;1.33;;
10110;SDS011;5095;49.796;9.934;2023-04-15T13:59:11;1.73;;;1.27;;
10110;SDS011;5095;49.796;9.934;2023-04-15T14:01:37;1.20;;;1.10;;
10110;SDS011;5095;49.796;9.934;2023-04-15T14:04:05;2.30;;;1.57;;
10110;SDS011;5095;49.796;9.934;2023-04-15T14:06:31;14.33;;;6.07;;
10110;SDS011;5095;49.796;9.934;2023-04-15T14:08:57;6.00;;;5.40;;
10110;SDS011;5095;49.796;9.934;2023-04-15T14:11:23;1.87;;;1.67;;
10110;SDS011;5095;49.796;9.934;2023-04-15T14:13:49;1.83;;;1.73;;
10110;SDS011;5095;49.796;9.934;2023-04-15T14:16:15;1.47;;;1.37;;
10110;SDS011;5095;49.796;9.934;2023-04-15T14:18:42;2.00;;;1.53;;
10110;SDS011;5095;49.796;9.934;2023-04-15T14:21:08;1.73;;;1.50;;
10110;SDS011;5095;49.796;9.934;2023-04-15T14:23:35;1.50;;;1.30;;
10110;SDS011;5095;49.796;9.934;2023-04-15T14:26:01;1.40;;;1.30;;
10110;SDS011;5095;49.796;9.934;2023-04-15T14:28:27;1.53;;;1.43;;
10110;SDS011;5095;49.796;9.934;2023-04-15T14:30:53;1.40;;;1.30;;
10110;SDS011;5095;49.796;9.934;2023-04-15T14:33:19;4.60;;;3.70;;
10110;SDS011;5095;49.796;9.934;2023-04-15T14:35:45;1.53;;;1.43;;
10110;SDS011;5095;49.796;9.934;2023-04-15T14:38:11;1.40;;;1.30;;
10110;SDS011;5095;49.796;9.934;2023-04-15T14:40:37;3.90;;;1.90;;
10110;SDS011;5095;49.796;9.934;2023-04-15T14:43:03;1.77;;;1.50;;
10110;SDS011;5095;49.796;9.934;2023-04-15T14:45:29;4.43;;;2.83;;
10110;SDS011;5095;49.796;9.934;2023-04-15T14:47:55;2.17;;;1.53;;
10110;SDS011;5095;49.796;9.934;2023-04-15T14:50:21;2.80;;;1.80;;
10110;SDS011;5095;49.796;9.934;2023-04-15T14:52:47;2.63;;;1.40;;
10110;SDS011;5095;49.796;9.934;2023-04-15T14:55:13;2.17;;;1.83;;
10110;SDS011;5095;49.796;9.934;2023-04-15T14:57:40;2.37;;;1.60;;
10110;SDS011;5095;49.796;9.934;2023-04-15T15:00:06;2.00;;;1.60;;
10110;SDS011;5095;49.796;9.934;2023-04-15T15:02:33;2.67;;;1.90;;
10110;SDS011;5095;49.796;9.934;2023-04-15T15:05:00;2.97;;;1.60;;
10110;SDS011;5095;49.796;9.934;2023-04-15T15:07:27;6.67;;;3.83;;